createdAt,value
2018-04-16T00:02:41.691Z,29.73
2018-04-16T00:05:09.152Z,35.07
2018-04-16T00:07:36.620Z,34.53
2018-04-16T00:10:04.071Z,35.70
2018-04-16T00:12:31.532Z,33.97
2018-04-16T00:14:58.979Z,31.40
2018-04-16T00:17:27.219Z,29.67
2018-04-16T00:19:54.663Z,33.77
2018-04-16T00:22:22.120Z,33.07
2018-04-16T00:24:49.572Z,34.10
2018-04-16T00:27:17.796Z,32.10
2018-04-16T00:29:45.251Z,33.93
2018-04-16T00:32:18.330Z,32.77
2018-04-16T00:34:51.648Z,30.40
2018-04-16T00:37:24.918Z,31.03
2018-04-16T00:39:58.023Z,42.40
2018-04-16T00:42:31.097Z,32.80
2018-04-16T00:45:04.188Z,34.57
2018-04-16T00:47:37.385Z,38.63
2018-04-16T00:50:10.574Z,30.33
2018-04-16T00:52:43.877Z,34.83
2018-04-16T00:55:16.948Z,37.50
2018-04-16T00:57:50.121Z,35.50
2018-04-16T01:00:23.323Z,36.13
2018-04-16T01:02:56.404Z,35.27
2018-04-16T01:05:29.588Z,31.07
2018-04-16T01:08:02.679Z,33.37
2018-04-16T01:10:35.721Z,27.33
2018-04-16T01:13:08.896Z,41.97
2018-04-16T01:15:42.130Z,30.13
2018-04-16T01:18:16.108Z,32.37
2018-04-16T01:20:49.356Z,27.77
2018-04-16T01:23:22.575Z,29.67
2018-04-16T01:25:55.695Z,30.60
2018-04-16T01:28:28.948Z,28.10
2018-04-16T01:31:02.653Z,23.93
2018-04-16T01:33:35.822Z,25.60
2018-04-16T01:36:09.067Z,25.57
2018-04-16T01:38:42.244Z,26.53
2018-04-16T01:41:15.432Z,21.47
2018-04-16T01:43:48.680Z,31.53
2018-04-16T01:46:21.918Z,23.67
2018-04-16T01:48:54.977Z,25.67
2018-04-16T01:51:28.039Z,28.57
2018-04-16T01:54:01.903Z,18.13
2018-04-16T01:56:35.112Z,23.13
2018-04-16T01:59:08.315Z,27.67
2018-04-16T02:01:42.251Z,22.53
2018-04-16T02:04:15.316Z,20.30
2018-04-16T02:06:49.236Z,17.77
2018-04-16T02:09:22.453Z,23.53
2018-04-16T02:11:55.559Z,16.97
2018-04-16T02:14:29.354Z,25.83
2018-04-16T02:17:02.521Z,19.37
2018-04-16T02:19:35.747Z,23.40
2018-04-16T02:22:08.906Z,20.00
2018-04-16T02:24:42.132Z,27.73
2018-04-16T02:27:15.307Z,21.23
2018-04-16T02:29:48.375Z,21.27
2018-04-16T02:32:21.569Z,25.80
2018-04-16T02:34:54.657Z,24.50
2018-04-16T02:37:27.761Z,24.97
2018-04-16T02:40:00.829Z,27.27
2018-04-16T02:42:34.040Z,26.07
2018-04-16T02:45:07.203Z,27.93
2018-04-16T02:47:40.368Z,25.13
2018-04-16T02:50:13.645Z,28.83
2018-04-16T02:52:47.837Z,30.70
2018-04-16T02:55:21.061Z,28.53
2018-04-16T02:57:54.218Z,27.83
2018-04-16T03:00:27.504Z,38.77
2018-04-16T03:03:00.690Z,21.93
2018-04-16T03:05:33.924Z,24.23
2018-04-16T03:08:07.167Z,22.27
2018-04-16T03:10:42.104Z,32.70
2018-04-16T03:13:15.312Z,31.20
2018-04-16T03:15:48.509Z,30.37
2018-04-16T03:18:21.709Z,26.40
2018-04-16T03:23:58.294Z,24.50
2018-04-16T03:26:31.529Z,25.43
2018-04-16T03:29:05.427Z,31.63
2018-04-16T03:31:38.547Z,25.30
2018-04-16T03:34:11.658Z,23.30
2018-04-16T03:36:44.888Z,21.23
2018-04-16T03:39:17.935Z,26.20
2018-04-16T03:41:50.982Z,28.87
2018-04-16T03:44:25.033Z,19.60
2018-04-16T03:46:58.326Z,29.60
2018-04-16T03:49:31.407Z,27.90
2018-04-16T03:52:13.565Z,24.60
2018-04-16T03:54:41.017Z,25.17
2018-04-16T03:57:08.475Z,32.00
2018-04-16T03:59:35.931Z,25.20
2018-04-16T04:02:03.392Z,28.93
2018-04-16T04:04:30.843Z,29.43
2018-04-16T04:06:58.320Z,30.90
2018-04-16T04:09:26.535Z,23.77
2018-04-16T04:11:53.997Z,28.27
2018-04-16T04:14:21.443Z,25.43
2018-04-16T04:16:48.892Z,34.23
2018-04-16T04:19:16.349Z,30.23
2018-04-16T04:21:44.184Z,20.10
2018-04-16T04:24:24.335Z,17.63
2018-04-16T04:27:04.428Z,22.87
2018-04-16T04:29:43.763Z,24.80
2018-04-16T04:32:11.239Z,24.33
2018-04-16T04:34:38.683Z,22.23
2018-04-16T04:37:06.133Z,26.00
2018-04-16T04:39:33.596Z,20.27
2018-04-16T04:42:01.047Z,26.90
2018-04-16T04:44:28.499Z,20.73
2018-04-16T04:46:55.949Z,18.33
2018-04-16T04:49:23.405Z,28.93
2018-04-16T04:51:54.195Z,30.47
2018-04-16T04:54:21.659Z,24.50
2018-04-16T04:56:49.109Z,28.07
2018-04-16T04:59:16.560Z,23.90
2018-04-16T05:01:44.008Z,24.00
2018-04-16T05:04:11.472Z,18.63
2018-04-16T05:06:38.920Z,30.33
2018-04-16T05:09:06.374Z,23.07
2018-04-16T05:11:33.825Z,25.63
2018-04-16T05:14:01.280Z,29.00
2018-04-16T05:16:28.738Z,27.10
2018-04-16T05:18:56.214Z,28.73
2018-04-16T05:21:27.468Z,27.53
2018-04-16T05:23:54.922Z,36.30
2018-04-16T05:26:22.385Z,22.77
2018-04-16T05:28:49.895Z,34.67
2018-04-16T05:31:17.345Z,33.37
2018-04-16T05:33:44.801Z,18.40
2018-04-16T05:36:12.260Z,21.10
2018-04-16T05:38:39.717Z,32.27
2018-04-16T05:41:07.164Z,20.17
2018-04-16T05:43:34.633Z,23.10
2018-04-16T05:46:02.070Z,17.30
2018-04-16T05:48:29.544Z,22.67
2018-04-16T05:50:56.975Z,21.13
2018-04-16T05:53:25.201Z,18.40
2018-04-16T05:55:52.657Z,23.77
2018-04-16T05:58:20.111Z,19.40
2018-04-16T06:00:47.564Z,20.30
2018-04-16T06:03:15.017Z,20.97
2018-04-16T06:05:42.468Z,12.83
2018-04-16T06:08:09.924Z,26.43
2018-04-16T06:10:37.383Z,23.80
2018-04-16T06:13:04.823Z,23.17
2018-04-16T06:15:32.281Z,21.43
2018-04-16T06:17:59.727Z,24.70
2018-04-16T06:20:27.176Z,20.10
2018-04-16T06:22:54.633Z,23.70
2018-04-16T06:25:22.839Z,14.23
2018-04-16T06:27:50.289Z,24.70
2018-04-16T06:30:17.749Z,22.30
2018-04-16T06:32:45.197Z,28.57
2018-04-16T06:35:12.639Z,16.90
2018-04-16T06:37:40.091Z,17.43
2018-04-16T06:40:07.545Z,14.43
2018-04-16T06:42:35.753Z,25.63
2018-04-16T06:45:03.200Z,29.40
2018-04-16T06:47:30.648Z,15.20
2018-04-16T06:49:58.094Z,22.23
2018-04-16T06:52:25.535Z,20.83
2018-04-16T06:54:53.752Z,23.90
2018-04-16T06:57:21.210Z,21.27
2018-04-16T06:59:48.668Z,19.70
2018-04-16T07:02:16.130Z,18.17
2018-04-16T07:04:43.601Z,21.43
2018-04-16T07:07:11.060Z,17.57
2018-04-16T07:09:38.534Z,16.03
2018-04-16T07:12:05.984Z,12.60
2018-04-16T07:14:33.456Z,14.73
2018-04-16T07:17:01.684Z,12.57
2018-04-16T07:19:29.148Z,20.47
2018-04-16T07:21:56.612Z,12.43
2018-04-16T07:24:24.072Z,17.80
2018-04-16T07:26:53.050Z,18.80
2018-04-16T07:29:20.516Z,11.90
2018-04-16T07:31:47.959Z,9.97
2018-04-16T07:34:15.414Z,6.80
2018-04-16T07:36:42.871Z,6.43
2018-04-16T07:39:10.328Z,16.90
2018-04-16T07:41:37.773Z,23.00
2018-04-16T07:44:05.226Z,8.60
2018-04-16T07:46:32.673Z,14.13
2018-04-16T07:49:00.131Z,20.73
2018-04-16T07:51:27.576Z,12.90
2018-04-16T07:53:55.029Z,28.50
2018-04-16T07:56:23.235Z,13.10
2018-04-16T07:58:50.692Z,9.97
2018-04-16T08:01:18.144Z,11.00
2018-04-16T08:03:45.587Z,8.83
2018-04-16T08:06:13.038Z,19.80
2018-04-16T08:08:40.488Z,14.20
2018-04-16T08:11:08.703Z,9.23
2018-04-16T08:13:36.147Z,11.77
2018-04-16T08:16:04.084Z,14.93
2018-04-16T08:18:31.520Z,7.40
2018-04-16T08:20:58.975Z,11.90
2018-04-16T08:23:26.428Z,9.07
2018-04-16T08:25:53.876Z,9.57
2018-04-16T08:28:21.319Z,6.37
2018-04-16T08:30:48.776Z,8.73
2018-04-16T08:33:16.284Z,5.47
2018-04-16T08:35:43.669Z,9.60
2018-04-16T08:38:11.120Z,7.27
2018-04-16T08:40:38.575Z,6.40
2018-04-16T08:43:06.017Z,6.87
2018-04-16T08:45:33.461Z,9.17
2018-04-16T08:48:01.671Z,5.00
2018-04-16T08:50:29.116Z,6.47
2018-04-16T08:52:56.563Z,3.87
2018-04-16T08:55:32.427Z,10.23
2018-04-16T08:57:59.875Z,7.07
2018-04-16T09:00:27.320Z,7.23
2018-04-16T09:02:55.536Z,10.80
2018-04-16T09:05:22.991Z,7.43
2018-04-16T09:07:50.435Z,6.87
2018-04-16T09:10:17.887Z,5.53
2018-04-16T09:12:45.329Z,8.93
2018-04-16T09:15:12.784Z,5.10
2018-04-16T09:17:40.227Z,5.50
2018-04-16T09:20:08.454Z,9.87
2018-04-16T09:22:35.897Z,16.90
2018-04-16T09:25:03.356Z,5.37
2018-04-16T09:27:30.838Z,13.70
2018-04-16T09:29:58.272Z,17.13
2018-04-16T09:32:25.724Z,20.40
2018-04-16T09:34:53.182Z,15.73
2018-04-16T09:37:20.622Z,7.77
2018-04-16T09:39:48.252Z,9.37
2018-04-16T09:42:16.511Z,19.60
2018-04-16T09:44:43.964Z,18.77
2018-04-16T09:47:11.420Z,34.50
2018-04-16T09:49:38.859Z,29.10
2018-04-16T09:52:06.313Z,31.57
2018-04-16T09:54:33.763Z,32.20
2018-04-16T09:57:01.215Z,25.93
2018-04-16T09:59:28.672Z,34.57
2018-04-16T10:01:56.119Z,58.90
2018-04-16T10:04:23.584Z,22.03
2018-04-16T10:06:51.033Z,18.87
2018-04-16T10:09:18.479Z,15.57
2018-04-16T10:11:45.930Z,19.23
2018-04-16T10:14:13.377Z,15.50
2018-04-16T10:16:41.595Z,15.97
2018-04-16T10:19:09.047Z,9.37
2018-04-16T10:21:36.492Z,10.90
2018-04-16T10:24:03.948Z,4.80
2018-04-16T10:26:31.453Z,7.03
2018-04-16T10:28:58.854Z,6.53
2018-04-16T10:31:26.308Z,14.87
2018-04-16T10:33:53.755Z,22.60
2018-04-16T10:36:21.227Z,23.17
2018-04-16T10:38:48.663Z,9.40
2018-04-16T10:41:16.123Z,9.07
2018-04-16T10:43:43.571Z,11.27
2018-04-16T10:46:11.792Z,9.77
2018-04-16T10:48:39.244Z,7.90
2018-04-16T10:51:06.685Z,5.57
2018-04-16T10:53:34.149Z,5.00
2018-04-16T10:56:01.591Z,16.27
2018-04-16T10:58:29.037Z,7.80
2018-04-16T11:00:57.324Z,13.63
2018-04-16T11:03:24.737Z,7.20
2018-04-16T11:05:52.197Z,10.93
2018-04-16T11:08:19.648Z,12.43
2018-04-16T11:10:47.096Z,12.10
2018-04-16T11:13:14.548Z,14.03
2018-04-16T11:15:41.989Z,9.90
2018-04-16T11:18:09.441Z,14.33
2018-04-16T11:20:36.898Z,13.10
2018-04-16T11:23:04.345Z,13.37
2018-04-16T11:25:31.800Z,41.40
2018-04-16T11:27:59.268Z,155.97
2018-04-16T11:30:26.727Z,317.07
2018-04-16T11:32:54.177Z,94.13
2018-04-16T11:35:21.629Z,31.97
2018-04-16T11:37:49.073Z,9.63
2018-04-16T11:40:16.528Z,10.80
2018-04-16T11:42:43.974Z,8.93
2018-04-16T11:45:11.419Z,6.13
2018-04-16T11:47:39.633Z,7.80
2018-04-16T11:50:07.081Z,5.50
2018-04-16T11:52:34.536Z,12.00
2018-04-16T11:55:01.993Z,13.20
2018-04-16T11:57:29.485Z,11.13
2018-04-16T11:59:56.892Z,12.80
2018-04-16T12:02:24.344Z,12.43
2018-04-16T12:04:51.787Z,8.97
2018-04-16T12:07:23.170Z,7.33
2018-04-16T12:09:50.617Z,8.90
2018-04-16T12:12:18.057Z,9.70
2018-04-16T12:14:46.271Z,7.67
2018-04-16T12:17:13.726Z,33.07
2018-04-16T12:19:41.175Z,18.03
2018-04-16T12:22:08.633Z,8.00
2018-04-16T12:24:36.082Z,11.63
2018-04-16T12:27:03.535Z,7.43
2018-04-16T12:29:30.975Z,7.70
2018-04-16T12:31:59.200Z,5.57
2018-04-16T12:34:26.655Z,7.50
2018-04-16T12:36:54.123Z,9.07
2018-04-16T12:39:21.626Z,6.93
2018-04-16T12:41:49.084Z,10.57
2018-04-16T12:44:16.537Z,5.13
2018-04-16T12:46:43.983Z,8.93
2018-04-16T12:49:12.192Z,6.23
2018-04-16T12:51:39.647Z,6.93
2018-04-16T12:54:07.103Z,4.60
2018-04-16T12:56:34.564Z,5.00
2018-04-16T12:59:02.017Z,17.53
2018-04-16T13:01:29.483Z,7.83
2018-04-16T13:03:56.933Z,7.60
2018-04-16T13:06:24.394Z,7.80
2018-04-16T13:08:51.835Z,9.03
2018-04-16T13:11:19.287Z,18.63
2018-04-16T13:13:46.739Z,15.47
2018-04-16T13:16:14.180Z,7.97
2018-04-16T13:18:42.400Z,22.83
2018-04-16T13:21:09.854Z,11.50
2018-04-16T13:23:37.296Z,6.97
2018-04-16T13:26:04.743Z,8.27
2018-04-16T13:28:32.196Z,24.90
2018-04-16T13:30:59.648Z,92.77
2018-04-16T13:33:27.627Z,51.13
2018-04-16T13:35:55.081Z,13.10
2018-04-16T13:38:22.532Z,10.73
2018-04-16T13:40:49.996Z,13.73
2018-04-16T13:43:17.447Z,13.10
2018-04-16T13:45:44.887Z,13.63
2018-04-16T13:48:13.109Z,11.13
2018-04-16T13:50:40.549Z,9.43
2018-04-16T13:53:07.991Z,7.00
2018-04-16T13:55:35.439Z,8.20
2018-04-16T13:58:02.907Z,13.90
2018-04-16T14:00:30.351Z,6.97
2018-04-16T14:02:57.813Z,10.63
2018-04-16T14:05:25.276Z,13.67
2018-04-16T14:07:52.719Z,6.50
2018-04-16T14:10:20.938Z,15.17
2018-04-16T14:12:48.387Z,10.87
2018-04-16T14:15:15.841Z,12.27
2018-04-16T14:17:43.288Z,8.53
2018-04-16T14:20:10.733Z,13.40
2018-04-16T14:22:38.187Z,21.27
2018-04-16T14:25:05.648Z,27.50
2018-04-16T14:27:33.108Z,14.40
2018-04-16T14:30:00.562Z,11.80
2018-04-16T14:32:29.014Z,11.63
2018-04-16T14:34:56.459Z,18.20
2018-04-16T14:37:23.927Z,12.10
2018-04-16T14:39:51.373Z,12.07
2018-04-16T14:42:18.837Z,11.50
2018-04-16T14:44:46.285Z,9.90
2018-04-16T14:47:13.746Z,8.87
2018-04-16T14:49:41.194Z,22.93
2018-04-16T14:52:08.656Z,13.63
2018-04-16T14:54:36.099Z,9.83
2018-04-16T14:57:03.567Z,12.70
2018-04-16T14:59:31.021Z,12.60
2018-04-16T15:01:58.479Z,18.20
2018-04-16T15:04:25.924Z,10.43
2018-04-16T15:06:53.393Z,17.37
2018-04-16T15:09:20.867Z,18.80
2018-04-16T15:11:48.303Z,13.90
2018-04-16T15:14:15.757Z,11.33
2018-04-16T15:16:43.211Z,11.83
2018-04-16T15:19:10.656Z,13.17
2018-04-16T15:21:38.112Z,14.50
2018-04-16T15:24:05.573Z,21.43
2018-04-16T15:26:33.020Z,12.83
2018-04-16T15:29:00.463Z,15.43
2018-04-16T15:31:27.912Z,13.17
2018-04-16T15:33:55.351Z,14.87
2018-04-16T15:36:22.809Z,13.20
2018-04-16T15:38:50.262Z,18.93
2018-04-16T15:41:18.475Z,15.67
2018-04-16T15:43:45.924Z,15.40
2018-04-16T15:46:13.382Z,12.80
2018-04-16T15:48:40.842Z,15.03
2018-04-16T15:51:08.284Z,12.77
2018-04-16T15:53:35.738Z,12.57
2018-04-16T15:56:03.199Z,12.70
2018-04-16T15:58:30.663Z,18.07
2018-04-16T16:00:58.128Z,22.03
2018-04-16T16:03:25.584Z,21.43
2018-04-16T16:05:56.463Z,23.70
2018-04-16T16:08:24.684Z,24.37
2018-04-16T16:10:52.140Z,20.60
2018-04-16T16:13:19.596Z,27.27
2018-04-16T16:15:47.047Z,17.90
2018-04-16T16:18:14.508Z,25.67
2018-04-16T16:20:41.966Z,30.00
2018-04-16T16:23:09.420Z,20.93
2018-04-16T16:25:36.876Z,21.90
2018-04-16T16:28:04.336Z,29.33
2018-04-16T16:30:31.792Z,18.10
2018-04-16T16:32:59.247Z,19.93
2018-04-16T16:35:26.701Z,27.80
2018-04-16T16:37:54.168Z,30.40
2018-04-16T16:40:21.624Z,28.20
2018-04-16T16:42:49.076Z,22.53
2018-04-16T16:45:16.551Z,27.70
2018-04-16T16:47:44.056Z,21.40
2018-04-16T16:50:12.303Z,23.80
2018-04-16T16:52:39.761Z,22.00
2018-04-16T16:55:07.216Z,26.20
2018-04-16T16:57:34.670Z,22.20
2018-04-16T17:00:02.123Z,24.00
2018-04-16T17:02:29.645Z,28.33
2018-04-16T17:04:57.061Z,24.57
2018-04-16T17:07:25.294Z,32.10
2018-04-16T17:09:52.743Z,28.00
2018-04-16T17:12:20.223Z,24.70
2018-04-16T17:14:47.676Z,28.37
2018-04-16T17:17:15.131Z,29.20
2018-04-16T17:19:42.579Z,31.33
2018-04-16T17:22:10.031Z,25.43
2018-04-16T17:24:37.491Z,29.87
2018-04-16T17:27:04.939Z,28.77
2018-04-16T17:29:32.405Z,33.50
2018-04-16T17:31:59.864Z,32.07
2018-04-16T17:34:27.326Z,30.50
2018-04-16T17:36:54.831Z,31.57
2018-04-16T17:39:22.259Z,33.60
2018-04-16T17:41:49.708Z,29.40
2018-04-16T17:44:17.176Z,36.57
2018-04-16T17:46:44.635Z,31.70
2018-04-16T17:49:12.100Z,26.93
2018-04-16T17:51:40.320Z,26.40
2018-04-16T17:54:07.777Z,27.17
2018-04-16T17:56:35.240Z,26.23
2018-04-16T17:59:02.692Z,24.93
2018-04-16T18:01:30.148Z,26.77
2018-04-16T18:03:57.608Z,34.20
2018-04-16T18:06:25.070Z,20.70
2018-04-16T18:08:52.518Z,28.23
2018-04-16T18:11:19.964Z,28.20
2018-04-16T18:13:47.421Z,25.00
2018-04-16T18:16:14.876Z,30.07
2018-04-16T18:18:42.328Z,28.13
2018-04-16T18:21:09.784Z,22.20
2018-04-16T18:23:37.239Z,19.20
2018-04-16T18:26:04.692Z,18.83
2018-04-16T18:28:32.170Z,27.07
2018-04-16T18:30:59.620Z,26.17
2018-04-16T18:33:27.081Z,24.60
2018-04-16T18:35:54.535Z,24.73
2018-04-16T18:38:22.008Z,23.87
2018-04-16T18:40:50.241Z,24.63
2018-04-16T18:43:18.526Z,24.93
2018-04-16T18:45:46.007Z,24.87
2018-04-16T18:48:13.480Z,24.63
2018-04-16T18:50:40.940Z,28.60
2018-04-16T18:53:08.400Z,25.83
2018-04-16T18:55:35.912Z,34.17
2018-04-16T18:58:03.460Z,29.93
2018-04-16T19:00:31.729Z,34.57
2018-04-16T19:03:00.023Z,32.23
2018-04-16T19:05:27.492Z,31.27
2018-04-16T19:07:54.948Z,28.10
2018-04-16T19:10:22.424Z,33.20
2018-04-16T19:12:49.879Z,36.67
2018-04-16T19:15:17.328Z,32.30
2018-04-16T19:17:59.483Z,29.47
2018-04-16T19:20:33.307Z,30.07
2018-04-16T19:23:01.535Z,34.67
2018-04-16T19:25:29.028Z,31.70
2018-04-16T19:28:02.161Z,32.50
2018-04-16T19:30:29.612Z,33.60
2018-04-16T19:33:02.697Z,35.23
2018-04-16T19:35:30.148Z,28.20
2018-04-16T19:37:57.609Z,30.80
2018-04-16T19:40:25.064Z,26.83
2018-04-16T19:42:52.515Z,30.10
2018-04-16T19:45:19.971Z,27.40
2018-04-16T19:47:47.606Z,28.97
2018-04-16T19:50:15.154Z,24.20
2018-04-16T19:52:43.381Z,26.10
2018-04-16T19:55:10.836Z,26.00
2018-04-16T19:57:43.960Z,25.33
2018-04-16T20:00:11.425Z,25.70
2018-04-16T20:02:44.582Z,21.90
2018-04-16T20:05:12.031Z,26.87
2018-04-16T20:07:39.480Z,34.30
2018-04-16T20:10:07.002Z,35.80
2018-04-16T20:12:34.429Z,33.83
2018-04-16T20:15:01.888Z,31.23
2018-04-16T20:17:29.336Z,27.33
2018-04-16T20:19:57.564Z,31.50
2018-04-16T20:22:25.026Z,31.07
2018-04-16T20:24:52.479Z,33.63
2018-04-16T20:27:19.954Z,26.50
2018-04-16T20:29:47.411Z,33.00
2018-04-16T20:32:14.873Z,33.37
2018-04-16T20:34:42.331Z,29.27
2018-04-16T20:37:09.790Z,29.63
2018-04-16T20:39:37.264Z,29.87
2018-04-16T20:42:04.728Z,29.30
2018-04-16T20:44:32.496Z,29.57
2018-04-16T20:46:59.972Z,28.73
2018-04-16T20:49:27.430Z,24.17
2018-04-16T20:51:54.882Z,24.20
2018-04-16T20:54:22.373Z,26.53
2018-04-16T20:56:49.838Z,24.47
2018-04-16T20:59:17.302Z,20.07
2018-04-16T21:01:44.754Z,19.90
2018-04-16T21:04:12.224Z,24.77
2018-04-16T21:06:39.741Z,28.77
2018-04-16T21:09:08.015Z,24.90
2018-04-16T21:11:39.707Z,29.10
2018-04-16T21:14:07.284Z,28.20
2018-04-16T21:16:34.782Z,34.73
2018-04-16T21:19:02.288Z,26.07
2018-04-16T21:21:29.784Z,25.83
2018-04-16T21:23:57.286Z,22.43
2018-04-16T21:26:24.800Z,24.87
2018-04-16T21:28:52.295Z,27.40
2018-04-16T21:31:19.787Z,18.10
2018-04-16T21:33:47.318Z,20.50
2018-04-16T21:36:14.824Z,25.77
2018-04-16T21:38:44.223Z,25.63
2018-04-16T21:41:17.421Z,22.33
2018-04-16T21:43:44.923Z,25.53
2018-04-16T21:46:12.423Z,19.97
2018-04-16T21:48:40.821Z,21.13
2018-04-16T21:51:08.328Z,24.77
2018-04-16T21:53:35.836Z,22.43
2018-04-16T21:56:03.348Z,21.87
2018-04-16T21:58:30.866Z,21.57
2018-04-16T22:00:58.369Z,23.30
2018-04-16T22:03:25.873Z,25.07
2018-04-16T22:05:53.383Z,24.90
2018-04-16T22:08:20.880Z,26.90
2018-04-16T22:10:48.375Z,21.00
2018-04-16T22:13:16.643Z,19.63
2018-04-16T22:15:44.967Z,22.97
2018-04-16T22:18:12.470Z,23.63
2018-04-16T22:20:40.751Z,20.90
2018-04-16T22:23:09.012Z,20.60
2018-04-16T22:25:36.501Z,24.03
2018-04-16T22:28:04.005Z,19.97
2018-04-16T22:30:31.510Z,20.83
2018-04-16T22:32:59.019Z,22.80
2018-04-16T22:35:26.521Z,18.97
2018-04-16T22:37:54.783Z,39.97
2018-04-16T22:40:23.069Z,19.23
2018-04-16T22:42:51.332Z,22.93
2018-04-16T22:45:19.609Z,21.33
2018-04-16T22:47:47.879Z,19.60
2018-04-16T22:50:15.392Z,26.70
2018-04-16T22:52:42.895Z,17.57
2018-04-16T22:55:10.410Z,21.97
2018-04-16T22:57:37.920Z,21.70
2018-04-16T23:00:06.221Z,18.33
2018-04-16T23:02:33.722Z,14.93
2018-04-16T23:05:01.228Z,11.73
2018-04-16T23:07:28.743Z,9.13
2018-04-16T23:09:56.261Z,10.80
2018-04-16T23:12:23.760Z,7.50
2018-04-16T23:14:51.256Z,7.50
2018-04-16T23:17:19.516Z,12.10
2018-04-16T23:19:47.831Z,14.50
2018-04-16T23:22:15.328Z,12.50
2018-04-16T23:24:42.817Z,11.53
2018-04-16T23:27:11.137Z,13.57
2018-04-16T23:29:38.627Z,15.10
2018-04-16T23:32:06.123Z,14.17
2018-04-16T23:34:33.625Z,16.90
2018-04-16T23:37:01.135Z,17.27
2018-04-16T23:39:28.631Z,15.10
2018-04-16T23:41:56.141Z,13.20
2018-04-16T23:44:24.414Z,19.20
2018-04-16T23:46:52.683Z,11.03
2018-04-16T23:49:20.963Z,14.90
2018-04-16T23:51:49.237Z,14.97
2018-04-16T23:54:17.505Z,15.33
2018-04-16T23:56:45.011Z,14.40
2018-04-16T23:59:12.507Z,13.33
